Goose Bay Airport

Jump to: basic info | weather | frequencies | runways | comments

Related pages: nearby airports | nearby navaids | notams | map

Basic information (top)

Codes: YYR CYYR
Location: lon 53.319199, lat -60.425800, elev 160 ft / 49 m msl
Status: medium_airport
Scheduled airline service: yes
Links: Wikipedia Mobile

Weather (top)

Current conditions (rec'd 2014/04/20 15:00Z):

CYYR 201500Z 34016G25KT 15SM FEW074 M00/M13 A3010 RMK AC1 SLP195

Airport forecast (rec'd 2014/04/20 12:33Z):

TAF CYYR 201130Z 2012/2112 30012G22KT P6SM FEW120 FEW220 
     FM201400 31012G22KT P6SM BKN030 BKN220 
      TEMPO 2014/2104 P6SM -SHSN 
     FM210400 25008KT P6SM SCT030 SCT220 
      RMK NXT FCST BY 201800Z

Frequencies (top)

Verify before use: may be inaccurate or out of date.

ATIS: 128.1 MHz (ATIS)
CLD: 118.1 MHz (CLNC DEL)
CNTR: 120.4 MHz (GANDER CNTR)
FBO: 122.9 MHz (Wooward Aviation (Esso))
GND: 121.9 MHz (GND)
MIL: 129.3 MHz (Ranger Base)
OPS: 129.85 MHz (WING OPS)
PAL: 120.4 MHz (Gander Centre)
PMSV: 344.6 MHz (PMSV)
RCO: 123.475 MHz (Halifax Radio (FISE))
RDR: 119.9 MHz (PAR)
TML: 119.5 MHz (Goose Bay Terminal)
TWR: 119.1 MHz (TWR)

Runways (top)

08/26: 11,046 x 209 ft (3,367 x 64 m) — paved — lighted

16/34: 9,580 x 200 ft (2,920 x 61 m) — paved — lighted

Latest comments (top)

No comments yet for Goose Bay Airport

More... (top)

See also NOTAMs and nearby airports and navaids, or visit the Goose Bay Airport page at the main OurAirports website..